Time;durP1;ratioP1;P1;durP2;ratioP2;P2;SDS_P1;SDS_P2;PMS_P1;PMS_P2;Temp;Humidity;BMP_temperature;BMP_pressure;BME280_temperature;BME280_humidity;BME280_pressure;Samples;Min_cycle;Max_cycle;Signal;HPM_P1;HPM_P2
2022/06/07 00:01:39;;;;;;;13.13;4.65;;;;;;;21.43;37.00;99338.59;4980155;28;20084;-72
2022/06/07 00:04:05;;;;;;;11.57;4.03;;;;;;;21.40;37.53;99340.97;4979688;28;20045;-71
2022/06/07 00:06:31;;;;;;;8.60;4.00;;;;;;;21.40;37.48;99349.88;5028313;28;20049;-71
2022/06/07 00:08:57;;;;;;;10.88;3.97;;;;;;;21.32;37.30;99342.16;5027069;28;20411;-71
2022/06/07 00:11:23;;;;;;;8.98;3.65;;;;;;;21.32;37.63;99344.00;4977622;28;20064;-70
2022/06/07 00:14:09;;;;;;;8.05;3.83;;;;;;;21.64;37.38;99358.81;4977703;28;20064;-71
2022/06/07 00:16:34;;;;;;;9.57;3.85;;;;;;;21.23;37.65;99358.94;5028862;28;20640;-70
2022/06/07 00:19:00;;;;;;;7.50;3.85;;;;;;;21.24;37.93;99353.28;4980041;28;20041;-70
2022/06/07 00:21:29;;;;;;;14.23;4.18;;;;;;;21.12;37.92;99347.06;4996235;28;20115;-70
2022/06/07 00:23:56;;;;;;;9.07;3.65;;;;;;;21.33;37.84;99351.06;5030250;28;20088;-70
2022/06/07 00:26:22;;;;;;;5.25;3.42;;;;;;;21.25;38.19;99351.41;4997978;28;20033;-70
2022/06/07 00:28:48;;;;;;;12.82;3.63;;;;;;;21.28;38.06;99345.56;4997853;28;20494;-70
2022/06/07 00:31:14;;;;;;;7.10;2.70;;;;;;;21.30;37.83;99348.81;4982043;28;20041;-69
2022/06/07 00:33:41;;;;;;;5.85;3.28;;;;;;;21.28;38.05;99346.34;4981464;28;20049;-70
2022/06/07 00:36:08;;;;;;;17.17;3.45;;;;;;;21.23;38.21;99353.53;4997797;28;20091;-69
2022/06/07 00:38:34;;;;;;;5.72;3.45;;;;;;;21.26;38.23;99358.47;4981729;28;20056;-69
2022/06/07 00:41:03;;;;;;;11.43;3.58;;;;;;;21.21;38.16;99355.63;4981249;28;20087;-69
2022/06/07 00:43:30;;;;;;;11.82;3.72;;;;;;;21.21;38.37;99361.03;5046590;28;20054;-68
2022/06/07 00:45:57;;;;;;;9.13;3.30;;;;;;;21.15;38.52;99335.78;5030864;28;20050;-69
2022/06/07 00:48:23;;;;;;;10.43;3.83;;;;;;;21.19;38.38;99357.72;5030463;28;20049;-70
2022/06/07 00:50:53;;;;;;;9.32;4.00;;;;;;;21.25;38.60;99352.22;4997255;28;20041;-70
2022/06/07 00:53:28;;;;;;;10.98;4.75;;;;;;;21.16;38.69;99336.59;4997431;28;20045;-70
2022/06/07 00:56:02;;;;;;;8.40;3.65;;;;;;;21.11;38.73;99358.91;5030687;28;20124;-72
2022/06/07 00:58:29;;;;;;;14.35;4.03;;;;;;;21.12;38.97;99354.31;5029826;28;20049;-70
2022/06/07 01:00:56;;;;;;;12.63;3.42;;;;;;;21.08;38.80;99340.44;5046589;28;20141;-70
2022/06/07 01:03:22;;;;;;;8.07;4.05;;;;;;;21.01;38.90;99349.72;4980969;28;20147;-69
2022/06/07 01:05:53;;;;;;;15.30;3.65;;;;;;;21.04;39.08;99341.16;5013895;28;20045;-70
2022/06/07 01:11:10;;;;;;;7.95;3.55;;;;;;;21.05;39.17;99345.53;5016351;28;20045;-69
2022/06/07 01:13:36;;;;;;;7.50;3.10;;;;;;;21.01;39.07;99339.75;4997114;28;20533;-70
2022/06/07 01:16:22;;;;;;;8.95;3.30;;;;;;;21.02;39.07;99346.78;5015433;28;20095;-70
2022/06/07 01:18:48;;;;;;;7.95;3.70;;;;;;;21.10;39.17;99337.53;4996302;28;20092;-72
2022/06/07 01:21:34;;;;;;;6.80;3.30;;;;;;;21.32;38.93;99339.44;5029492;28;20068;-70
2022/06/07 01:24:02;;;;;;;13.73;4.00;;;;;;;21.16;39.14;99344.69;5029862;28;20049;-70
2022/06/07 01:26:35;;;;;;;9.98;3.25;;;;;;;21.08;39.11;99347.75;5013927;28;20563;-69
2022/06/07 01:29:04;;;;;;;6.35;3.50;;;;;;;21.12;39.37;99349.75;5029505;28;20041;-70
2022/06/07 01:31:31;;;;;;;8.70;3.60;;;;;;;21.11;39.33;99355.38;4996862;28;20113;-70
2022/06/07 01:33:57;;;;;;;6.47;3.40;;;;;;;21.10;39.51;99359.13;5012974;28;20040;-69
2022/06/07 01:36:23;;;;;;;8.27;3.28;;;;;;;21.04;39.48;99360.88;4980329;28;20053;-70
2022/06/07 01:41:53;;;;;;;9.60;4.20;;;;;;;21.09;39.27;99363.72;4980776;28;20084;-70
2022/06/07 01:41:54;;;;;;;15.75;4.70;;;;;;;21.14;39.14;99361.13;5029332;28;20529;-69
2022/06/07 01:44:24;;;;;;;12.13;6.25;;;;;;;21.30;39.03;99362.31;5015818;28;20131;-70
2022/06/07 01:46:51;;;;;;;13.05;6.35;;;;;;;21.23;39.05;99367.84;5012998;28;20073;-72
2022/06/07 01:49:17;;;;;;;11.52;7.47;;;;;;;21.17;39.24;99365.25;5012828;28;20140;-69
2022/06/07 01:51:44;;;;;;;13.25;9.02;;;;;;;21.13;39.22;99364.91;5028464;28;20078;-70
2022/06/07 01:54:11;;;;;;;16.73;9.25;;;;;;;21.18;39.25;99366.91;4994061;28;20048;-69
2022/06/07 01:56:36;;;;;;;18.42;10.15;;;;;;;21.06;39.28;99363.34;5025824;28;20573;-69
2022/06/07 01:59:03;;;;;;;16.92;11.05;;;;;;;21.10;39.31;99365.34;4976571;28;20053;-70
2022/06/07 02:01:29;;;;;;;19.90;11.02;;;;;;;21.09;39.38;99366.44;4976590;28;20053;-71
2022/06/07 02:03:55;;;;;;;18.23;9.70;;;;;;;21.17;39.21;99370.66;4992229;28;20056;-73
2022/06/07 02:06:21;;;;;;;16.13;8.60;;;;;;;21.15;39.07;99367.38;4976329;28;20156;-77
2022/06/07 02:08:47;;;;;;;18.88;8.15;;;;;;;21.19;39.00;99365.84;4977373;28;20041;-72
2022/06/07 02:11:17;;;;;;;18.33;6.75;;;;;;;21.41;38.72;99372.31;5010541;28;20033;-73
2022/06/07 02:13:48;;;;;;;15.82;5.95;;;;;;;21.24;38.61;99374.06;4980851;28;20041;-71
2022/06/07 02:16:15;;;;;;;12.60;4.95;;;;;;;21.31;38.60;99364.78;4996474;28;20068;-71
2022/06/07 02:18:41;;;;;;;10.85;5.45;;;;;;;21.26;38.64;99367.41;4996090;28;20439;-71
2022/06/07 02:21:24;;;;;;;8.10;4.60;;;;;;;21.32;38.65;99374.56;4983483;28;20045;-71
2022/06/07 02:23:52;;;;;;;7.95;4.50;;;;;;;21.27;38.63;99374.44;4997047;28;20068;-72
2022/06/07 02:26:28;;;;;;;9.27;4.97;;;;;;;21.55;37.90;99369.19;4996083;28;20487;-71
2022/06/07 02:28:57;;;;;;;10.40;4.30;;;;;;;21.55;38.11;99371.88;4979850;28;20045;-71
2022/06/07 02:31:24;;;;;;;13.70;4.63;;;;;;;21.47;37.72;99366.81;5014993;28;20140;-71
2022/06/07 02:33:51;;;;;;;10.82;3.72;;;;;;;21.45;37.19;99371.63;5033032;28;20041;-71
2022/06/07 02:36:17;;;;;;;11.50;4.40;;;;;;;21.54;37.33;99374.81;5032594;28;20061;-71
2022/06/07 02:38:43;;;;;;;12.73;3.70;;;;;;;21.56;36.81;99351.88;4999731;28;20156;-71
2022/06/07 02:41:11;;;;;;;9.43;4.00;;;;;;;21.77;36.85;99382.13;5016221;28;20427;-72
2022/06/07 02:43:36;;;;;;;8.57;3.35;;;;;;;21.63;36.85;99385.03;4999811;28;20106;-71
2022/06/07 02:46:02;;;;;;;7.70;3.30;;;;;;;21.55;36.39;99382.69;5031842;28;20143;-72
2022/06/07 02:48:29;;;;;;;8.80;2.85;;;;;;;21.69;36.08;99392.19;5032579;28;20461;-72
2022/06/07 02:50:56;;;;;;;9.82;2.90;;;;;;;21.70;35.74;99391.16;4983355;28;20094;-71
2022/06/07 02:53:22;;;;;;;4.30;2.50;;;;;;;21.74;35.40;99386.09;4983814;28;20082;-71
2022/06/07 02:55:48;;;;;;;5.70;2.47;;;;;;;21.77;34.53;99390.22;5016023;28;20045;-71
2022/06/07 02:58:23;;;;;;;11.80;3.00;;;;;;;21.93;34.38;99392.19;4985410;28;20045;-72
2022/06/07 03:00:49;;;;;;;6.18;2.60;;;;;;;21.85;34.94;99400.69;5031522;28;20405;-71
2022/06/07 03:03:18;;;;;;;3.65;2.28;;;;;;;21.83;34.49;99400.94;4999762;28;20088;-74
2022/06/07 03:05:44;;;;;;;5.47;2.30;;;;;;;21.88;34.01;99401.03;5015352;28;20498;-72
2022/06/07 03:08:12;;;;;;;6.60;2.40;;;;;;;21.89;33.53;99389.16;4998736;28;20049;-72
2022/06/07 03:10:38;;;;;;;4.95;2.47;;;;;;;21.94;33.23;99394.66;4982922;28;20128;-72
2022/06/07 03:13:05;;;;;;;6.85;2.28;;;;;;;21.90;33.21;99393.50;4982843;28;20046;-72
2022/06/07 03:15:32;;;;;;;8.70;2.30;;;;;;;21.92;33.22;99395.97;4998910;28;20606;-71
2022/06/07 03:18:01;;;;;;;6.50;2.63;;;;;;;21.93;33.26;99395.75;4983167;28;20536;-72
2022/06/07 03:20:34;;;;;;;5.95;2.33;;;;;;;22.12;32.91;99396.41;4984296;28;20045;-73
2022/06/07 03:23:01;;;;;;;13.40;2.78;;;;;;;22.13;33.27;99408.88;4998941;28;20058;-75
2022/06/07 03:25:28;;;;;;;8.73;2.55;;;;;;;22.06;33.09;99398.22;5014711;28;20498;-75
2022/06/07 03:28:03;;;;;;;10.88;2.40;;;;;;;22.06;32.56;99414.44;4999085;28;20392;-71
2022/06/07 03:30:30;;;;;;;6.80;2.30;;;;;;;22.13;32.62;99409.72;4982291;28;20061;-73
2022/06/07 03:32:58;;;;;;;7.05;2.17;;;;;;;22.31;31.93;99412.25;5014667;28;20104;-74
2022/06/07 03:35:27;;;;;;;8.93;2.42;;;;;;;22.54;31.36;99412.22;5015236;28;20041;-73
2022/06/07 03:37:55;;;;;;;5.53;2.05;;;;;;;22.32;31.65;99411.22;4998721;28;20140;-71
2022/06/07 03:43:07;;;;;;;6.88;2.13;;;;;;;22.39;30.99;99413.75;5000270;28;20048;-71
2022/06/07 03:45:35;;;;;;;5.72;2.10;;;;;;;22.41;30.90;99408.94;4982255;28;20045;-70
2022/06/07 03:48:01;;;;;;;7.47;1.80;;;;;;;22.41;30.88;99420.59;4982189;28;20041;-70
2022/06/07 03:50:27;;;;;;;8.25;1.88;;;;;;;22.48;30.86;99418.56;4981890;28;20163;-71
2022/06/07 03:52:54;;;;;;;9.65;2.22;;;;;;;22.57;30.62;99416.34;5014967;28;20128;-69
2022/06/07 03:55:21;;;;;;;2.83;1.70;;;;;;;22.62;30.53;99419.97;4995701;28;20203;-70
2022/06/07 03:58:05;;;;;;;5.45;2.75;;;;;;;22.69;30.44;99425.25;4981123;28;20049;-73
2022/06/07 04:00:32;;;;;;;4.30;1.80;;;;;;;22.67;30.64;99428.19;4994682;28;20054;-71
2022/06/07 04:03:00;;;;;;;5.07;2.20;;;;;;;22.71;30.63;99429.34;4995169;28;20416;-71
2022/06/07 04:05:27;;;;;;;4.78;1.90;;;;;;;22.72;30.48;99424.78;4978881;28;20038;-71
2022/06/07 04:08:13;;;;;;;8.15;2.00;;;;;;;22.80;29.80;99436.03;4995204;28;20140;-71
2022/06/07 04:10:52;;;;;;;6.35;1.77;;;;;;;23.03;30.06;99438.63;4981144;28;20045;-71
2022/06/07 04:13:24;;;;;;;8.20;2.00;;;;;;;23.01;30.28;99437.25;4995000;28;20054;-70
2022/06/07 04:15:54;;;;;;;7.05;2.40;;;;;;;22.86;29.96;99434.25;4994476;28;20582;-70
2022/06/07 04:18:21;;;;;;;5.60;1.60;;;;;;;22.85;29.52;99441.53;4994302;28;20068;-70
2022/06/07 04:20:48;;;;;;;7.80;1.80;;;;;;;22.94;29.27;99429.25;5010268;28;20045;-70
2022/06/07 04:23:17;;;;;;;8.50;1.88;;;;;;;23.06;29.24;99438.16;4988624;28;20085;-70
2022/06/07 04:25:43;;;;;;;10.93;2.10;;;;;;;22.90;29.74;99428.09;4992470;28;20088;-71
2022/06/07 04:28:13;;;;;;;8.85;2.10;;;;;;;22.91;29.52;99429.75;4978355;28;20070;-71
2022/06/07 04:30:47;;;;;;;10.68;1.85;;;;;;;23.08;29.33;99429.78;4977569;28;20049;-71
2022/06/07 04:33:17;;;;;;;14.65;2.05;;;;;;;22.92;29.54;99427.88;4973794;28;20074;-71
2022/06/07 04:35:46;;;;;;;14.38;2.10;;;;;;;22.97;29.37;99428.78;4974966;28;20482;-71
2022/06/07 04:38:16;;;;;;;6.88;1.58;;;;;;;23.06;28.56;99429.22;4943205;28;20046;-71
2022/06/07 04:40:45;;;;;;;5.93;1.80;;;;;;;23.24;27.96;99423.56;4986816;28;20061;-71
2022/06/07 04:43:13;;;;;;;12.73;2.13;;;;;;;23.23;27.94;99430.06;4973683;28;20054;-69
2022/06/07 04:45:40;;;;;;;6.93;1.98;;;;;;;23.44;27.49;99440.22;4953508;28;20123;-74
2022/06/07 04:48:11;;;;;;;7.75;2.00;;;;;;;23.55;27.97;99435.78;4967908;28;20046;-74
2022/06/07 04:50:46;;;;;;;3.42;1.45;;;;;;;23.54;27.52;99432.22;5007064;28;20046;-75
2022/06/07 04:53:16;;;;;;;9.50;2.20;;;;;;;23.63;27.48;99427.25;4973189;28;20054;-74
2022/06/07 04:55:42;;;;;;;4.35;2.20;;;;;;;23.76;27.07;99433.13;4972552;28;20050;-74
2022/06/07 04:58:09;;;;;;;9.27;2.00;;;;;;;23.81;26.86;99435.09;4980270;28;20068;-74
2022/06/07 05:00:38;;;;;;;5.57;2.10;;;;;;;23.80;26.78;99430.75;4973418;28;20069;-74
2022/06/07 05:03:05;;;;;;;8.23;1.98;;;;;;;23.79;27.38;99423.69;4971905;28;20049;-75
2022/06/07 05:05:34;;;;;;;10.20;2.20;;;;;;;23.83;27.03;99427.56;5014416;28;20038;-74
2022/06/07 05:08:07;;;;;;;5.82;2.08;;;;;;;23.84;26.89;99437.31;4981642;28;20300;-74
2022/06/07 05:10:34;;;;;;;7.22;2.15;;;;;;;23.83;27.15;99430.25;5002503;28;20055;-73
2022/06/07 05:13:03;;;;;;;9.30;2.03;;;;;;;23.84;26.63;99429.19;5014791;28;20039;-73
2022/06/07 05:15:34;;;;;;;9.35;2.20;;;;;;;23.84;26.79;99404.78;4979182;28;20050;-76
2022/06/07 05:18:05;;;;;;;5.85;1.60;;;;;;;23.95;26.61;99428.28;4982017;28;20045;-75
2022/06/07 05:20:33;;;;;;;3.95;1.30;;;;;;;23.93;25.51;99433.94;5000515;28;20153;-73
2022/06/07 05:23:08;;;;;;;3.47;1.40;;;;;;;23.97;25.31;99434.31;4994211;28;20038;-74
2022/06/07 05:25:37;;;;;;;5.20;1.40;;;;;;;24.02;24.72;99432.47;5002619;28;20069;-75
2022/06/07 05:28:03;;;;;;;4.43;1.33;;;;;;;24.06;24.38;99421.97;5009673;28;20046;-75
2022/06/07 05:30:33;;;;;;;11.05;1.70;;;;;;;24.07;24.42;99420.88;5000367;28;20135;-73
2022/06/07 05:33:20;;;;;;;2.83;1.23;;;;;;;24.18;24.28;99430.81;5011878;28;20038;-75
2022/06/07 05:35:58;;;;;;;10.93;1.50;;;;;;;24.36;23.88;99433.22;5017672;28;20567;-76
2022/06/07 05:38:25;;;;;;;5.05;1.25;;;;;;;24.47;23.64;99441.25;4980578;28;20045;-76
2022/06/07 05:40:58;;;;;;;4.25;1.13;;;;;;;24.54;23.15;99408.47;5014277;28;20400;-75
2022/06/07 05:43:24;;;;;;;4.22;1.13;;;;;;;24.64;22.69;99430.31;5001865;28;20078;-75
2022/06/07 05:45:55;;;;;;;6.28;1.17;;;;;;;24.76;22.60;99429.13;4991906;28;20053;-74
2022/06/07 05:48:33;;;;;;;4.30;1.40;;;;;;;24.73;23.75;99429.66;4976625;28;20042;-75
2022/06/07 05:51:02;;;;;;;8.18;1.02;;;;;;;24.83;22.88;99432.47;4992336;28;20156;-75
2022/06/07 05:53:29;;;;;;;5.50;1.20;;;;;;;24.85;22.90;99434.94;4974969;28;20053;-75
2022/06/07 05:55:56;;;;;;;6.35;1.25;;;;;;;24.96;22.65;99438.56;4972516;28;20474;-75
2022/06/07 05:58:25;;;;;;;5.63;1.35;;;;;;;24.88;21.88;99435.25;4989830;28;20064;-75
2022/06/07 06:00:52;;;;;;;3.92;0.90;;;;;;;24.95;21.93;99437.78;4973002;28;20057;-75
2022/06/07 06:03:23;;;;;;;4.18;1.00;;;;;;;24.97;21.73;99438.31;4966361;28;20069;-75
2022/06/07 06:05:50;;;;;;;5.95;1.10;;;;;;;24.99;21.45;99425.31;4977001;28;20408;-74
2022/06/07 06:11:16;;;;;;;1.83;0.75;;;;;;;25.20;20.44;99408.09;4981181;28;20531;-74
2022/06/07 06:13:50;;;;;;;2.80;0.90;;;;;;;25.07;20.63;99446.59;4983352;28;20612;-75
2022/06/07 06:16:18;;;;;;;4.72;0.90;;;;;;;25.26;20.58;99438.91;4978311;28;20050;-75
2022/06/07 06:18:58;;;;;;;4.63;0.90;;;;;;;25.39;20.20;99427.59;4979094;28;20046;-77
2022/06/07 06:21:38;;;;;;;2.30;0.70;;;;;;;25.38;19.53;99426.81;4994135;28;20062;-76
2022/06/07 06:24:05;;;;;;;10.20;6.07;;;;;;;25.47;20.74;99436.13;4977630;28;20047;-75
2022/06/07 06:26:31;;;;;;;4.72;0.98;;;;;;;25.48;19.34;99437.75;4995366;28;20054;-75
2022/06/07 06:28:59;;;;;;;2.90;0.80;;;;;;;25.45;18.47;99432.84;5010975;28;20482;-76
2022/06/07 06:31:25;;;;;;;2.33;0.98;;;;;;;25.51;19.09;99437.25;4995063;28;20042;-75
2022/06/07 06:33:52;;;;;;;2.72;1.02;;;;;;;25.51;19.53;99422.84;4993608;28;20062;-75
2022/06/07 06:36:26;;;;;;;3.08;0.80;;;;;;;25.65;19.17;99422.13;5010274;28;20508;-74
2022/06/07 06:38:57;;;;;;;9.32;1.08;;;;;;;25.66;19.16;99434.63;5006164;28;20049;-75
2022/06/07 06:41:32;;;;;;;2.00;0.90;;;;;;;25.97;18.34;99430.25;4980605;28;20099;-75
2022/06/07 06:44:02;;;;;;;2.05;0.88;;;;;;;25.93;18.71;99423.69;4965111;28;20096;-74
2022/06/07 06:46:37;;;;;;;3.35;0.70;;;;;;;25.93;17.98;99413.63;5012873;28;20526;-75
2022/06/07 06:49:23;;;;;;;5.05;1.00;;;;;;;26.27;18.10;99425.00;5009059;28;20128;-72
2022/06/07 06:51:49;;;;;;;4.57;1.15;;;;;;;26.06;18.40;99421.34;5014289;28;20204;-74
2022/06/07 06:54:21;;;;;;;5.20;2.55;;;;;;;26.11;19.96;99420.56;4982756;28;20049;-74
2022/06/07 06:57:01;;;;;;;4.47;1.45;;;;;;;26.17;18.79;99416.81;4999093;28;20041;-73
2022/06/07 06:59:28;;;;;;;6.45;2.28;;;;;;;26.31;19.04;99423.38;4968997;28;20169;-70
2022/06/07 07:01:58;;;;;;;7.57;2.65;;;;;;;26.40;19.12;99392.66;4963573;28;20046;-71
2022/06/07 07:04:26;;;;;;;6.25;1.70;;;;;;;26.74;18.46;99424.97;4963192;28;20132;-71
2022/06/07 07:06:54;;;;;;;2.88;1.48;;;;;;;26.99;17.70;99423.13;4962743;28;20519;-72
2022/06/07 07:09:26;;;;;;;6.53;2.00;;;;;;;26.98;18.02;99404.31;4977432;28;20073;-74
2022/06/07 07:11:54;;;;;;;6.90;1.58;;;;;;;27.36;16.99;99417.47;4946439;28;20038;-75
2022/06/07 07:14:37;;;;;;;8.50;1.30;;;;;;;27.56;17.37;99412.03;4979775;28;20046;-72
2022/06/07 07:17:05;;;;;;;3.55;2.20;;;;;;;27.79;17.18;99379.53;4960034;28;20097;-76
2022/06/07 07:19:35;;;;;;;7.20;1.40;;;;;;;28.33;16.65;99407.00;4959664;28;20045;-72
2022/06/07 07:22:07;;;;;;;3.70;1.23;;;;;;;28.94;16.11;99410.28;4975360;28;20091;-74
2022/06/07 07:24:34;;;;;;;2.85;1.10;;;;;;;29.62;15.66;99409.25;4975205;28;20145;-72
2022/06/07 07:27:02;;;;;;;3.75;1.20;;;;;;;30.21;14.46;99395.31;4975368;28;20054;-74
2022/06/07 07:29:29;;;;;;;7.45;1.83;;;;;;;31.12;14.02;99410.28;4975295;28;20061;-72
2022/06/07 07:32:01;;;;;;;6.78;1.40;;;;;;;32.11;12.98;99408.94;4944595;28;20053;-76
2022/06/07 07:34:34;;;;;;;7.43;1.15;;;;;;;33.28;12.33;99397.91;4976083;28;20038;-73
2022/06/07 07:37:00;;;;;;;5.45;1.52;;;;;;;34.55;11.41;99404.53;4978076;28;20054;-78
2022/06/07 07:39:31;;;;;;;2.38;0.95;;;;;;;35.69;10.04;99402.81;4994431;28;20053;-75
2022/06/07 07:41:58;;;;;;;4.80;1.15;;;;;;;37.54;9.06;99408.03;5010390;28;20050;-72
2022/06/07 07:44:27;;;;;;;8.00;1.83;;;;;;;39.82;8.32;99403.56;5010197;28;20054;-73
2022/06/07 07:46:58;;;;;;;7.07;1.75;;;;;;;42.05;6.94;99400.00;4960387;28;20046;-74
2022/06/07 07:49:27;;;;;;;7.60;2.75;;;;;;;44.25;5.90;99399.47;4974772;28;20069;-77
2022/06/07 07:51:54;;;;;;;5.63;2.63;;;;;;;46.11;4.55;99399.66;4974408;28;20043;-74
2022/06/07 07:54:24;;;;;;;8.13;1.75;;;;;;;47.71;3.89;99396.16;4973839;28;20104;-71
2022/06/07 07:56:52;;;;;;;3.80;2.65;;;;;;;49.29;3.32;99400.44;4993222;28;20110;-74
2022/06/07 07:59:20;;;;;;;6.20;2.13;;;;;;;50.52;2.41;99388.09;4993320;28;20061;-75
2022/06/07 08:01:50;;;;;;;4.80;2.30;;;;;;;51.68;2.04;99394.31;5009860;28;20037;-74
2022/06/07 08:04:17;;;;;;;8.55;3.15;;;;;;;52.61;2.35;99395.22;4988314;28;20129;-71
2022/06/07 08:06:47;;;;;;;6.32;2.42;;;;;;;53.16;1.46;99382.78;4957159;28;20056;-71
2022/06/07 08:09:14;;;;;;;9.07;2.40;;;;;;;53.62;1.45;99393.59;4980354;28;20062;-72
2022/06/07 08:11:41;;;;;;;2.47;1.00;;;;;;;53.41;0.90;99392.19;4996374;28;20566;-71
2022/06/07 08:14:10;;;;;;;3.17;0.88;;;;;;;53.35;0.63;99393.19;4991876;28;20046;-70
2022/06/07 08:16:35;;;;;;;;;;;;;;;53.88;0.59;99371.66;4964488;28;20045;-72
2022/06/07 08:19:02;;;;;;;7.20;1.90;;;;;;;54.22;0.55;99371.78;4971545;28;20016;-70
2022/06/07 08:21:30;;;;;;;8.35;2.33;;;;;;;54.50;0.64;99360.19;4962580;28;20042;-71
2022/06/07 08:23:57;;;;;;;6.65;1.98;;;;;;;54.97;0.16;99371.56;5004882;28;20101;-70
2022/06/07 08:26:23;;;;;;;4.72;1.85;;;;;;;55.66;0.00;99360.75;4988194;28;20077;-71
2022/06/07 08:28:49;;;;;;;6.90;1.27;;;;;;;55.88;0.00;99375.75;4973641;28;20346;-70
2022/06/07 08:31:23;;;;;;;3.30;1.02;;;;;;;56.03;0.08;99371.03;4973885;28;20048;-73
2022/06/07 08:39:20;;;;;;;7.32;1.73;;;;;;;56.60;0.00;99352.28;4968509;28;20490;-72
2022/06/07 08:41:59;;;;;;;12.48;7.05;;;;;;;56.97;0.00;99353.91;4959479;28;20116;-72
2022/06/07 08:44:46;;;;;;;3.92;1.25;;;;;;;57.24;0.00;99346.09;4979737;28;20128;-75
2022/06/07 08:47:23;;;;;;;6.90;1.55;;;;;;;57.50;0.00;99346.50;5002979;28;20082;-73
2022/06/07 08:49:52;;;;;;;3.47;2.30;;;;;;;57.64;0.00;99348.66;4996295;28;20050;-74
2022/06/07 08:52:45;;;;;;;7.57;1.60;;;;;;;58.12;0.00;99333.19;4990022;28;20034;-74
2022/06/07 08:55:16;;;;;;;10.68;1.60;;;;;;;58.20;0.00;99339.34;4943512;28;20488;-72
2022/06/07 08:57:43;;;;;;;6.97;1.80;;;;;;;58.74;0.00;99345.47;5007647;28;20037;-72
2022/06/07 09:00:22;;;;;;;8.13;1.20;;;;;;;58.76;0.00;99340.03;4995292;28;20061;-72
2022/06/07 09:03:21;;;;;;;1.80;0.95;;;;;;;58.86;0.00;99332.13;5008285;28;20080;-72
2022/06/07 09:05:58;;;;;;;4.70;0.90;;;;;;;58.37;0.00;99329.03;4988102;28;20047;-72
2022/06/07 09:08:26;;;;;;;5.23;1.40;;;;;;;58.57;0.00;99314.88;4988461;28;20042;-72
2022/06/07 09:13:36;;;;;;;2.10;0.90;;;;;;;58.42;0.00;99314.88;4980173;28;20053;-70
2022/06/07 09:16:03;;;;;;;5.50;1.25;;;;;;;58.76;0.00;99313.47;5005338;28;20471;-71
2022/06/07 09:18:33;;;;;;;4.43;0.82;;;;;;;58.86;0.00;99312.09;5012475;28;20038;-71
2022/06/07 09:21:19;;;;;;;3.67;0.88;;;;;;;58.39;0.00;99315.81;5000703;28;20052;-71
2022/06/07 09:23:48;;;;;;;8.02;0.95;;;;;;;57.43;0.00;99292.53;4991307;28;20180;-71
2022/06/07 09:26:38;;;;;;;4.78;0.80;;;;;;;57.22;0.00;99302.13;5005398;28;20060;-71
2022/06/07 09:29:19;;;;;;;4.90;1.00;;;;;;;57.05;0.00;99309.47;5007903;28;20060;-72
2022/06/07 09:31:47;;;;;;;1.75;0.90;;;;;;;56.81;0.00;99302.84;4973201;28;20042;-70
2022/06/07 09:34:28;;;;;;;4.47;0.80;;;;;;;56.81;0.00;99303.63;4972412;28;20419;-70
2022/06/07 09:36:58;;;;;;;4.50;0.82;;;;;;;56.19;0.00;99290.94;4971610;28;20061;-75
2022/06/07 09:39:38;;;;;;;7.22;1.48;;;;;;;56.30;0.00;99292.03;4990077;28;20065;-71
2022/06/07 09:42:16;;;;;;;6.72;1.00;;;;;;;56.10;0.00;99297.41;4994542;28;20045;-71
2022/06/07 09:45:02;;;;;;;4.95;1.00;;;;;;;56.25;0.00;99291.88;4974044;28;20050;-71
2022/06/07 09:47:33;;;;;;;8.45;0.77;;;;;;;56.38;0.00;99283.19;5009363;28;20459;-71
2022/06/07 09:50:25;;;;;;;3.45;1.30;;;;;;;56.47;0.00;99283.19;4997650;28;20049;-73
2022/06/07 09:52:57;;;;;;;3.00;0.77;;;;;;;56.83;0.00;99292.50;5015421;28;20041;-74
2022/06/07 09:55:45;;;;;;;8.05;0.98;;;;;;;56.87;0.00;99301.69;5014833;28;20046;-75
2022/06/07 09:58:26;;;;;;;2.47;0.82;;;;;;;57.12;0.00;99295.63;4989913;28;20132;-72
2022/06/07 10:01:01;;;;;;;3.60;0.82;;;;;;;57.24;0.00;99268.19;5015856;28;20050;-72
2022/06/07 10:03:56;;;;;;;8.20;0.80;;;;;;;57.22;0.00;99254.34;4994739;28;20069;-73
2022/06/07 10:06:27;;;;;;;5.68;0.90;;;;;;;57.76;0.00;99281.09;4984586;28;20053;-71
2022/06/07 10:09:28;;;;;;;7.80;0.75;;;;;;;57.55;0.00;99277.25;5007514;28;20500;-72
2022/06/07 10:12:12;;;;;;;3.10;0.82;;;;;;;57.32;0.00;99273.06;4969806;28;20216;-73
2022/06/07 10:15:15;;;;;;;1.17;0.80;;;;;;;57.28;0.00;99281.03;4991556;28;20582;-71
2022/06/07 10:17:47;;;;;;;3.15;1.00;;;;;;;57.11;0.00;99273.28;4974095;28;20042;-74
2022/06/07 10:20:38;;;;;;;8.00;1.35;;;;;;;56.30;0.00;99262.72;4995114;28;20056;-72
2022/06/07 10:23:36;;;;;;;3.92;0.88;;;;;;;55.84;0.00;99258.22;4972825;28;20046;-73
2022/06/07 10:26:18;;;;;;;8.77;0.65;;;;;;;55.61;0.00;99251.00;4940138;28;20049;-74
2022/06/07 10:29:12;;;;;;;2.30;0.90;;;;;;;55.70;0.00;99256.72;4941054;28;20038;-71
2022/06/07 10:31:43;;;;;;;3.15;0.80;;;;;;;55.80;0.00;99257.56;4987369;28;20050;-71
2022/06/07 10:34:55;;;;;;;5.28;0.90;;;;;;;55.38;0.00;99237.28;4971992;28;20412;-72
2022/06/07 10:37:41;;;;;;;2.85;0.88;;;;;;;55.19;0.00;99247.06;4968832;28;20046;-74
2022/06/07 10:40:34;;;;;;;1.92;0.70;;;;;;;54.56;0.00;99243.78;4984553;28;20070;-72
2022/06/07 10:43:18;;;;;;;6.18;0.80;;;;;;;54.08;0.00;99255.66;4953996;28;20054;-72
2022/06/07 10:45:44;;;;;;;3.67;0.70;;;;;;;53.89;0.00;99228.28;4987624;28;20038;-72
2022/06/07 10:48:21;;;;;;;2.85;0.80;;;;;;;53.71;0.00;99222.41;4970798;28;20055;-74
2022/06/07 10:50:50;;;;;;;4.72;0.82;;;;;;;53.67;0.00;99244.50;4971206;28;20049;-71
2022/06/07 10:53:27;;;;;;;5.95;2.45;;;;;;;53.53;0.00;99245.72;4989001;28;20082;-73
2022/06/07 10:55:59;;;;;;;1.38;0.70;;;;;;;52.93;0.00;99249.63;4994934;28;20054;-74
2022/06/07 10:58:32;;;;;;;1.67;0.60;;;;;;;52.74;0.00;99240.06;4973296;28;20061;-71
2022/06/07 11:01:08;;;;;;;1.83;0.70;;;;;;;52.26;0.00;99236.56;4977770;28;20073;-74
2022/06/07 11:03:59;;;;;;;10.48;0.75;;;;;;;51.13;0.00;99227.25;4990127;28;20074;-72
2022/06/07 11:09:42;;;;;;;4.22;0.75;;;;;;;47.73;0.77;99230.44;4973072;28;20057;-71
2022/06/07 11:12:21;;;;;;;4.93;0.70;;;;;;;45.91;1.35;99218.75;4981934;28;20492;-71
2022/06/07 11:15:25;;;;;;;2.70;0.80;;;;;;;44.13;2.02;99220.56;4974794;28;20074;-70
2022/06/07 11:18:07;;;;;;;2.15;0.80;;;;;;;42.76;2.46;99198.84;4974084;28;20054;-70
2022/06/07 11:20:34;;;;;;;4.15;0.88;;;;;;;41.44;3.20;99180.50;5008132;28;20057;-71
2022/06/07 11:24:05;;;;;;;5.82;1.20;;;;;;;40.68;3.78;99211.28;4991348;28;20149;-74
2022/06/07 11:27:14;;;;;;;8.27;1.00;;;;;;;39.62;4.23;99204.41;4932660;28;20054;-72
2022/06/07 11:29:40;;;;;;;4.53;1.13;;;;;;;38.84;4.76;99209.84;4883305;29;20498;-71
2022/06/07 11:32:41;;;;;;;5.50;1.52;;;;;;;38.39;5.14;99201.75;4930887;28;20108;-71
2022/06/07 11:35:44;;;;;;;4.65;0.95;;;;;;;37.82;5.44;99201.13;5006418;28;20058;-70
2022/06/07 11:38:26;;;;;;;3.22;1.02;;;;;;;37.35;5.06;99182.50;5009567;28;20134;-70
2022/06/07 11:41:36;;;;;;;3.28;0.90;;;;;;;36.46;5.25;99189.53;4990165;28;20041;-70
2022/06/07 11:43:56;;;;;;;2.65;1.02;;;;;;;36.09;5.90;99182.16;4959700;28;20046;-70
2022/06/07 11:46:49;;;;;;;3.97;0.80;;;;;;;35.86;6.28;99207.69;5011222;28;20054;-70
2022/06/07 11:49:24;;;;;;;5.63;1.00;;;;;;;35.40;6.81;99200.22;4997571;28;20050;-71
2022/06/07 11:52:02;;;;;;;2.33;0.98;;;;;;;34.79;6.95;99149.06;4957713;28;20116;-70
2022/06/07 11:54:54;;;;;;;4.55;0.95;;;;;;;34.70;7.46;99205.38;4977981;28;20698;-70
2022/06/07 11:57:33;;;;;;;11.98;1.00;;;;;;;34.13;7.77;99182.66;4989824;28;20057;-71
2022/06/07 12:00:01;;;;;;;3.58;0.85;;;;;;;33.71;8.08;99200.69;4980345;28;20438;-70
2022/06/07 12:02:32;;;;;;;4.25;1.02;;;;;;;33.42;7.74;99194.91;4981191;28;20038;-71
2022/06/07 12:05:08;;;;;;;4.10;1.42;;;;;;;33.18;8.28;99196.41;5006271;28;20054;-70
2022/06/07 12:08:06;;;;;;;3.38;1.10;;;;;;;32.85;8.86;99195.84;4973703;28;20045;-70
2022/06/07 12:10:38;;;;;;;5.70;0.90;;;;;;;32.47;8.42;99195.44;4970401;28;20193;-72
2022/06/07 12:13:07;;;;;;;3.40;1.00;;;;;;;32.13;8.86;99172.28;4990581;28;20456;-71
2022/06/07 12:15:41;;;;;;;4.75;1.65;;;;;;;32.07;9.20;99195.50;4956915;28;20039;-72
2022/06/07 12:18:23;;;;;;;5.70;4.85;;;;;;;31.88;9.15;99194.81;4973962;28;20065;-71
2022/06/07 12:21:04;;;;;;;3.50;1.80;;;;;;;31.75;9.41;99190.13;4988839;28;20058;-70